sensor_id;sensor_type;location;lat;lon;timestamp;P1;durP1;ratioP1;P2;durP2;ratioP2
72720;SDS011;60835;50.974;10.322;2023-12-20T00:01:02;1.05;;;0.85;;
72720;SDS011;60835;50.974;10.322;2023-12-20T00:03:29;0.70;;;0.70;;
72720;SDS011;60835;50.974;10.322;2023-12-20T00:06:07;0.70;;;0.70;;
72720;SDS011;60835;50.974;10.322;2023-12-20T00:08:34;1.27;;;0.80;;
72720;SDS011;60835;50.974;10.322;2023-12-20T00:11:00;0.82;;;0.80;;
72720;SDS011;60835;50.974;10.322;2023-12-20T00:13:27;1.23;;;1.00;;
72720;SDS011;60835;50.974;10.322;2023-12-20T00:15:53;0.70;;;0.65;;
72720;SDS011;60835;50.974;10.322;2023-12-20T00:18:20;1.00;;;0.77;;
72720;SDS011;60835;50.974;10.322;2023-12-20T00:20:47;0.60;;;0.60;;
72720;SDS011;60835;50.974;10.322;2023-12-20T00:23:13;1.85;;;0.70;;
72720;SDS011;60835;50.974;10.322;2023-12-20T00:25:40;0.77;;;0.70;;
72720;SDS011;60835;50.974;10.322;2023-12-20T00:28:06;0.80;;;0.70;;
72720;SDS011;60835;50.974;10.322;2023-12-20T00:30:33;1.35;;;1.02;;
72720;SDS011;60835;50.974;10.322;2023-12-20T00:33:00;3.28;;;1.00;;
72720;SDS011;60835;50.974;10.322;2023-12-20T00:35:26;0.90;;;0.70;;
72720;SDS011;60835;50.974;10.322;2023-12-20T00:37:53;0.57;;;0.57;;
72720;SDS011;60835;50.974;10.322;2023-12-20T00:40:20;0.65;;;0.60;;
72720;SDS011;60835;50.974;10.322;2023-12-20T00:42:47;0.90;;;0.73;;
72720;SDS011;60835;50.974;10.322;2023-12-20T00:45:14;0.95;;;0.90;;
72720;SDS011;60835;50.974;10.322;2023-12-20T00:47:41;1.02;;;0.85;;
72720;SDS011;60835;50.974;10.322;2023-12-20T00:50:08;1.40;;;0.88;;
72720;SDS011;60835;50.974;10.322;2023-12-20T00:52:36;1.40;;;0.88;;
72720;SDS011;60835;50.974;10.322;2023-12-20T00:55:03;1.55;;;0.90;;
72720;SDS011;60835;50.974;10.322;2023-12-20T00:57:31;0.95;;;0.85;;
72720;SDS011;60835;50.974;10.322;2023-12-20T00:59:57;0.63;;;0.60;;
72720;SDS011;60835;50.974;10.322;2023-12-20T01:02:24;1.50;;;0.70;;
72720;SDS011;60835;50.974;10.322;2023-12-20T01:04:51;0.63;;;0.63;;
72720;SDS011;60835;50.974;10.322;2023-12-20T01:07:17;0.88;;;0.70;;
72720;SDS011;60835;50.974;10.322;2023-12-20T01:09:44;0.93;;;0.82;;
72720;SDS011;60835;50.974;10.322;2023-12-20T01:12:10;0.88;;;0.75;;
72720;SDS011;60835;50.974;10.322;2023-12-20T01:14:37;1.45;;;0.98;;
72720;SDS011;60835;50.974;10.322;2023-12-20T01:17:06;0.95;;;0.80;;
72720;SDS011;60835;50.974;10.322;2023-12-20T01:19:32;1.17;;;0.70;;
72720;SDS011;60835;50.974;10.322;2023-12-20T01:21:59;0.80;;;0.68;;
72720;SDS011;60835;50.974;10.322;2023-12-20T01:24:26;0.77;;;0.77;;
72720;SDS011;60835;50.974;10.322;2023-12-20T01:26:52;1.00;;;0.90;;
72720;SDS011;60835;50.974;10.322;2023-12-20T01:29:19;0.93;;;0.80;;
72720;SDS011;60835;50.974;10.322;2023-12-20T01:31:46;1.00;;;0.77;;
72720;SDS011;60835;50.974;10.322;2023-12-20T01:34:12;0.63;;;0.60;;
72720;SDS011;60835;50.974;10.322;2023-12-20T01:36:39;0.60;;;0.60;;
72720;SDS011;60835;50.974;10.322;2023-12-20T01:39:06;0.95;;;0.90;;
72720;SDS011;60835;50.974;10.322;2023-12-20T01:41:50;0.80;;;0.80;;
72720;SDS011;60835;50.974;10.322;2023-12-20T01:44:16;0.80;;;0.68;;
72720;SDS011;60835;50.974;10.322;2023-12-20T01:46:43;0.80;;;0.80;;
72720;SDS011;60835;50.974;10.322;2023-12-20T01:49:10;1.38;;;0.88;;
72720;SDS011;60835;50.974;10.322;2023-12-20T01:51:37;0.75;;;0.65;;
72720;SDS011;60835;50.974;10.322;2023-12-20T01:54:04;0.70;;;0.60;;
72720;SDS011;60835;50.974;10.322;2023-12-20T01:56:31;0.70;;;0.57;;
72720;SDS011;60835;50.974;10.322;2023-12-20T01:58:59;1.10;;;0.77;;
72720;SDS011;60835;50.974;10.322;2023-12-20T02:01:27;2.92;;;0.73;;
72720;SDS011;60835;50.974;10.322;2023-12-20T02:03:55;1.10;;;0.85;;
72720;SDS011;60835;50.974;10.322;2023-12-20T02:06:23;0.50;;;0.50;;
72720;SDS011;60835;50.974;10.322;2023-12-20T02:08:51;0.90;;;0.75;;
72720;SDS011;60835;50.974;10.322;2023-12-20T02:11:17;0.95;;;0.80;;
72720;SDS011;60835;50.974;10.322;2023-12-20T02:13:44;0.95;;;0.88;;
72720;SDS011;60835;50.974;10.322;2023-12-20T02:16:11;0.85;;;0.65;;
72720;SDS011;60835;50.974;10.322;2023-12-20T02:18:38;3.22;;;0.70;;
72720;SDS011;60835;50.974;10.322;2023-12-20T02:21:05;0.98;;;0.70;;
72720;SDS011;60835;50.974;10.322;2023-12-20T02:23:32;1.02;;;0.82;;
72720;SDS011;60835;50.974;10.322;2023-12-20T02:25:58;1.38;;;0.68;;
72720;SDS011;60835;50.974;10.322;2023-12-20T02:28:25;0.95;;;0.80;;
72720;SDS011;60835;50.974;10.322;2023-12-20T02:30:52;0.70;;;0.70;;
72720;SDS011;60835;50.974;10.322;2023-12-20T02:33:19;3.10;;;0.80;;
72720;SDS011;60835;50.974;10.322;2023-12-20T02:35:46;1.75;;;0.70;;
72720;SDS011;60835;50.974;10.322;2023-12-20T02:38:14;0.60;;;0.60;;
72720;SDS011;60835;50.974;10.322;2023-12-20T02:40:41;1.35;;;0.80;;
72720;SDS011;60835;50.974;10.322;2023-12-20T02:43:15;1.00;;;0.75;;
72720;SDS011;60835;50.974;10.322;2023-12-20T02:45:42;0.80;;;0.80;;
72720;SDS011;60835;50.974;10.322;2023-12-20T02:48:08;1.08;;;0.80;;
72720;SDS011;60835;50.974;10.322;2023-12-20T02:50:35;1.63;;;1.00;;
72720;SDS011;60835;50.974;10.322;2023-12-20T02:53:02;1.35;;;0.80;;
72720;SDS011;60835;50.974;10.322;2023-12-20T02:55:29;0.95;;;0.73;;
72720;SDS011;60835;50.974;10.322;2023-12-20T02:57:55;2.05;;;0.63;;
72720;SDS011;60835;50.974;10.322;2023-12-20T03:00:22;0.73;;;0.73;;
72720;SDS011;60835;50.974;10.322;2023-12-20T03:02:48;0.80;;;0.63;;
72720;SDS011;60835;50.974;10.322;2023-12-20T03:05:15;0.98;;;0.85;;
72720;SDS011;60835;50.974;10.322;2023-12-20T03:07:42;0.82;;;0.82;;
72720;SDS011;60835;50.974;10.322;2023-12-20T03:10:09;1.25;;;0.65;;
72720;SDS011;60835;50.974;10.322;2023-12-20T03:12:45;0.77;;;0.77;;
72720;SDS011;60835;50.974;10.322;2023-12-20T03:15:12;3.00;;;0.90;;
72720;SDS011;60835;50.974;10.322;2023-12-20T03:17:39;1.17;;;1.00;;
72720;SDS011;60835;50.974;10.322;2023-12-20T03:20:06;1.10;;;0.90;;
72720;SDS011;60835;50.974;10.322;2023-12-20T03:22:33;1.00;;;0.90;;
72720;SDS011;60835;50.974;10.322;2023-12-20T03:25:00;5.30;;;1.15;;
72720;SDS011;60835;50.974;10.322;2023-12-20T03:27:27;1.17;;;0.90;;
72720;SDS011;60835;50.974;10.322;2023-12-20T03:29:54;1.02;;;0.82;;
72720;SDS011;60835;50.974;10.322;2023-12-20T03:32:21;2.08;;;0.95;;
72720;SDS011;60835;50.974;10.322;2023-12-20T03:34:47;0.85;;;0.77;;
72720;SDS011;60835;50.974;10.322;2023-12-20T03:37:15;1.00;;;0.90;;
72720;SDS011;60835;50.974;10.322;2023-12-20T03:39:42;1.00;;;0.70;;
72720;SDS011;60835;50.974;10.322;2023-12-20T03:42:08;3.38;;;1.05;;
72720;SDS011;60835;50.974;10.322;2023-12-20T03:44:38;1.10;;;0.85;;
72720;SDS011;60835;50.974;10.322;2023-12-20T03:47:05;1.45;;;1.20;;
72720;SDS011;60835;50.974;10.322;2023-12-20T03:49:32;0.88;;;0.80;;
72720;SDS011;60835;50.974;10.322;2023-12-20T03:51:58;2.28;;;0.80;;
72720;SDS011;60835;50.974;10.322;2023-12-20T03:54:25;1.45;;;0.90;;
72720;SDS011;60835;50.974;10.322;2023-12-20T03:56:52;1.35;;;0.77;;
72720;SDS011;60835;50.974;10.322;2023-12-20T03:59:18;0.70;;;0.70;;
72720;SDS011;60835;50.974;10.322;2023-12-20T04:01:45;1.17;;;1.05;;
72720;SDS011;60835;50.974;10.322;2023-12-20T04:04:12;1.13;;;0.93;;
72720;SDS011;60835;50.974;10.322;2023-12-20T04:06:40;1.75;;;0.95;;
72720;SDS011;60835;50.974;10.322;2023-12-20T04:09:07;1.17;;;1.08;;
72720;SDS011;60835;50.974;10.322;2023-12-20T04:11:36;1.60;;;1.00;;
72720;SDS011;60835;50.974;10.322;2023-12-20T04:14:03;1.08;;;0.98;;
72720;SDS011;60835;50.974;10.322;2023-12-20T04:16:31;1.15;;;1.00;;
72720;SDS011;60835;50.974;10.322;2023-12-20T04:18:57;1.70;;;1.30;;
72720;SDS011;60835;50.974;10.322;2023-12-20T04:21:24;3.00;;;1.45;;
72720;SDS011;60835;50.974;10.322;2023-12-20T04:23:51;2.42;;;1.52;;
72720;SDS011;60835;50.974;10.322;2023-12-20T04:26:17;2.80;;;1.60;;
72720;SDS011;60835;50.974;10.322;2023-12-20T04:28:44;2.47;;;1.75;;
72720;SDS011;60835;50.974;10.322;2023-12-20T04:31:11;2.03;;;1.40;;
72720;SDS011;60835;50.974;10.322;2023-12-20T04:33:38;3.72;;;1.40;;
72720;SDS011;60835;50.974;10.322;2023-12-20T04:36:04;2.22;;;1.70;;
72720;SDS011;60835;50.974;10.322;2023-12-20T04:38:31;2.58;;;1.40;;
72720;SDS011;60835;50.974;10.322;2023-12-20T04:40:58;2.17;;;1.20;;
72720;SDS011;60835;50.974;10.322;2023-12-20T04:43:25;5.03;;;1.50;;
72720;SDS011;60835;50.974;10.322;2023-12-20T04:45:52;4.00;;;1.60;;
72720;SDS011;60835;50.974;10.322;2023-12-20T04:48:18;4.00;;;1.63;;
72720;SDS011;60835;50.974;10.322;2023-12-20T04:50:46;3.53;;;1.25;;
72720;SDS011;60835;50.974;10.322;2023-12-20T04:53:12;1.80;;;1.35;;
72720;SDS011;60835;50.974;10.322;2023-12-20T04:55:39;1.30;;;1.13;;
72720;SDS011;60835;50.974;10.322;2023-12-20T04:58:05;1.75;;;1.20;;
72720;SDS011;60835;50.974;10.322;2023-12-20T05:00:32;1.45;;;1.10;;
72720;SDS011;60835;50.974;10.322;2023-12-20T05:02:59;2.20;;;1.08;;
72720;SDS011;60835;50.974;10.322;2023-12-20T05:05:26;2.20;;;1.02;;
72720;SDS011;60835;50.974;10.322;2023-12-20T05:07:53;1.15;;;1.00;;
72720;SDS011;60835;50.974;10.322;2023-12-20T05:10:19;1.50;;;0.68;;
72720;SDS011;60835;50.974;10.322;2023-12-20T05:12:46;4.70;;;1.05;;
72720;SDS011;60835;50.974;10.322;2023-12-20T05:15:13;2.00;;;1.20;;
72720;SDS011;60835;50.974;10.322;2023-12-20T05:17:39;6.75;;;1.67;;
72720;SDS011;60835;50.974;10.322;2023-12-20T05:20:07;2.75;;;1.40;;
72720;SDS011;60835;50.974;10.322;2023-12-20T05:22:34;2.33;;;1.65;;
72720;SDS011;60835;50.974;10.322;2023-12-20T05:25:01;3.47;;;1.92;;
72720;SDS011;60835;50.974;10.322;2023-12-20T05:27:28;7.70;;;1.60;;
72720;SDS011;60835;50.974;10.322;2023-12-20T05:29:55;2.30;;;1.55;;
72720;SDS011;60835;50.974;10.322;2023-12-20T05:32:24;2.55;;;1.42;;
72720;SDS011;60835;50.974;10.322;2023-12-20T05:34:51;4.78;;;1.60;;
72720;SDS011;60835;50.974;10.322;2023-12-20T05:37:18;2.35;;;1.35;;
72720;SDS011;60835;50.974;10.322;2023-12-20T05:39:45;7.65;;;2.30;;
72720;SDS011;60835;50.974;10.322;2023-12-20T05:42:12;4.03;;;1.80;;
72720;SDS011;60835;50.974;10.322;2023-12-20T05:44:38;2.42;;;1.40;;
72720;SDS011;60835;50.974;10.322;2023-12-20T05:47:05;3.90;;;1.40;;
72720;SDS011;60835;50.974;10.322;2023-12-20T05:49:31;4.57;;;1.33;;
72720;SDS011;60835;50.974;10.322;2023-12-20T05:51:59;3.10;;;1.60;;
72720;SDS011;60835;50.974;10.322;2023-12-20T05:54:25;5.53;;;1.50;;
72720;SDS011;60835;50.974;10.322;2023-12-20T05:56:52;2.38;;;1.50;;
72720;SDS011;60835;50.974;10.322;2023-12-20T05:59:19;1.58;;;1.40;;
72720;SDS011;60835;50.974;10.322;2023-12-20T06:01:45;4.78;;;1.33;;
72720;SDS011;60835;50.974;10.322;2023-12-20T06:04:12;1.85;;;1.35;;
72720;SDS011;60835;50.974;10.322;2023-12-20T06:06:42;1.98;;;1.23;;
72720;SDS011;60835;50.974;10.322;2023-12-20T06:09:10;2.85;;;1.40;;
72720;SDS011;60835;50.974;10.322;2023-12-20T06:11:37;2.22;;;1.40;;
72720;SDS011;60835;50.974;10.322;2023-12-20T06:14:04;4.97;;;1.58;;
72720;SDS011;60835;50.974;10.322;2023-12-20T06:16:31;2.78;;;1.30;;
72720;SDS011;60835;50.974;10.322;2023-12-20T06:18:57;5.38;;;1.33;;
72720;SDS011;60835;50.974;10.322;2023-12-20T06:21:24;3.85;;;1.50;;
72720;SDS011;60835;50.974;10.322;2023-12-20T06:23:51;1.42;;;1.13;;
72720;SDS011;60835;50.974;10.322;2023-12-20T06:26:19;2.45;;;1.08;;
72720;SDS011;60835;50.974;10.322;2023-12-20T06:28:45;3.83;;;1.20;;
72720;SDS011;60835;50.974;10.322;2023-12-20T06:31:12;5.53;;;2.13;;
72720;SDS011;60835;50.974;10.322;2023-12-20T06:33:39;6.45;;;1.30;;
72720;SDS011;60835;50.974;10.322;2023-12-20T06:36:13;4.70;;;1.63;;
72720;SDS011;60835;50.974;10.322;2023-12-20T06:38:40;2.20;;;1.20;;
72720;SDS011;60835;50.974;10.322;2023-12-20T06:41:08;6.05;;;1.23;;
72720;SDS011;60835;50.974;10.322;2023-12-20T06:43:35;2.58;;;1.33;;
72720;SDS011;60835;50.974;10.322;2023-12-20T06:46:14;2.08;;;1.08;;
72720;SDS011;60835;50.974;10.322;2023-12-20T06:48:41;2.88;;;1.40;;
72720;SDS011;60835;50.974;10.322;2023-12-20T06:51:15;3.10;;;1.33;;
72720;SDS011;60835;50.974;10.322;2023-12-20T06:53:43;5.13;;;1.40;;
72720;SDS011;60835;50.974;10.322;2023-12-20T06:56:10;4.88;;;1.27;;
72720;SDS011;60835;50.974;10.322;2023-12-20T06:58:43;9.23;;;1.60;;
72720;SDS011;60835;50.974;10.322;2023-12-20T07:01:13;3.70;;;1.52;;
72720;SDS011;60835;50.974;10.322;2023-12-20T07:03:40;3.83;;;1.70;;
72720;SDS011;60835;50.974;10.322;2023-12-20T07:06:08;3.58;;;1.80;;
72720;SDS011;60835;50.974;10.322;2023-12-20T07:08:34;6.20;;;1.92;;
72720;SDS011;60835;50.974;10.322;2023-12-20T07:11:01;5.43;;;1.75;;
72720;SDS011;60835;50.974;10.322;2023-12-20T07:13:28;3.55;;;1.58;;
72720;SDS011;60835;50.974;10.322;2023-12-20T07:15:56;2.35;;;1.90;;
72720;SDS011;60835;50.974;10.322;2023-12-20T07:18:22;4.18;;;1.80;;
72720;SDS011;60835;50.974;10.322;2023-12-20T07:20:49;7.13;;;2.20;;
72720;SDS011;60835;50.974;10.322;2023-12-20T07:23:16;5.22;;;2.17;;
72720;SDS011;60835;50.974;10.322;2023-12-20T07:25:42;4.90;;;2.05;;
72720;SDS011;60835;50.974;10.322;2023-12-20T07:28:09;5.43;;;2.30;;
72720;SDS011;60835;50.974;10.322;2023-12-20T07:30:36;5.85;;;2.78;;
72720;SDS011;60835;50.974;10.322;2023-12-20T07:33:03;4.68;;;2.20;;
72720;SDS011;60835;50.974;10.322;2023-12-20T07:35:29;5.20;;;2.03;;
72720;SDS011;60835;50.974;10.322;2023-12-20T07:37:56;7.63;;;2.40;;
72720;SDS011;60835;50.974;10.322;2023-12-20T07:40:22;6.60;;;3.30;;
72720;SDS011;60835;50.974;10.322;2023-12-20T07:42:50;7.28;;;2.80;;
72720;SDS011;60835;50.974;10.322;2023-12-20T07:45:16;4.00;;;2.35;;
72720;SDS011;60835;50.974;10.322;2023-12-20T07:47:43;3.72;;;2.22;;
72720;SDS011;60835;50.974;10.322;2023-12-20T07:50:10;4.90;;;1.85;;
72720;SDS011;60835;50.974;10.322;2023-12-20T07:52:37;5.60;;;2.28;;
72720;SDS011;60835;50.974;10.322;2023-12-20T07:55:04;4.72;;;2.15;;
72720;SDS011;60835;50.974;10.322;2023-12-20T07:57:31;4.90;;;2.00;;
72720;SDS011;60835;50.974;10.322;2023-12-20T07:59:58;4.22;;;2.13;;
72720;SDS011;60835;50.974;10.322;2023-12-20T08:02:24;8.13;;;2.60;;
72720;SDS011;60835;50.974;10.322;2023-12-20T08:04:51;9.30;;;2.25;;
72720;SDS011;60835;50.974;10.322;2023-12-20T08:07:18;6.75;;;1.58;;
72720;SDS011;60835;50.974;10.322;2023-12-20T08:09:44;3.47;;;1.80;;
72720;SDS011;60835;50.974;10.322;2023-12-20T08:12:11;4.10;;;1.70;;
72720;SDS011;60835;50.974;10.322;2023-12-20T08:14:38;2.92;;;1.60;;
72720;SDS011;60835;50.974;10.322;2023-12-20T08:17:05;5.32;;;1.83;;
72720;SDS011;60835;50.974;10.322;2023-12-20T08:19:31;2.95;;;1.65;;
72720;SDS011;60835;50.974;10.322;2023-12-20T08:21:58;5.13;;;1.90;;
72720;SDS011;60835;50.974;10.322;2023-12-20T08:24:25;3.88;;;1.45;;
72720;SDS011;60835;50.974;10.322;2023-12-20T08:26:51;3.30;;;1.50;;
72720;SDS011;60835;50.974;10.322;2023-12-20T08:29:18;5.68;;;1.65;;
72720;SDS011;60835;50.974;10.322;2023-12-20T08:31:45;3.40;;;1.30;;
72720;SDS011;60835;50.974;10.322;2023-12-20T08:34:13;4.75;;;1.63;;
72720;SDS011;60835;50.974;10.322;2023-12-20T08:36:41;7.45;;;1.88;;
72720;SDS011;60835;50.974;10.322;2023-12-20T08:39:09;7.88;;;1.77;;
72720;SDS011;60835;50.974;10.322;2023-12-20T08:41:35;5.38;;;1.88;;
72720;SDS011;60835;50.974;10.322;2023-12-20T08:44:03;6.45;;;1.70;;
72720;SDS011;60835;50.974;10.322;2023-12-20T08:46:30;3.33;;;1.40;;
72720;SDS011;60835;50.974;10.322;2023-12-20T08:48:57;7.25;;;1.77;;
72720;SDS011;60835;50.974;10.322;2023-12-20T08:51:24;5.25;;;1.90;;
72720;SDS011;60835;50.974;10.322;2023-12-20T08:53:52;3.58;;;1.50;;
72720;SDS011;60835;50.974;10.322;2023-12-20T08:56:18;5.15;;;2.10;;
72720;SDS011;60835;50.974;10.322;2023-12-20T08:58:45;4.90;;;2.55;;
72720;SDS011;60835;50.974;10.322;2023-12-20T09:01:13;11.65;;;2.97;;
72720;SDS011;60835;50.974;10.322;2023-12-20T09:03:41;12.80;;;2.33;;
72720;SDS011;60835;50.974;10.322;2023-12-20T09:06:07;6.80;;;2.05;;
72720;SDS011;60835;50.974;10.322;2023-12-20T09:08:34;7.03;;;2.25;;
72720;SDS011;60835;50.974;10.322;2023-12-20T09:11:01;7.30;;;1.88;;
72720;SDS011;60835;50.974;10.322;2023-12-20T09:13:28;6.65;;;1.73;;
72720;SDS011;60835;50.974;10.322;2023-12-20T09:15:55;5.32;;;2.13;;
72720;SDS011;60835;50.974;10.322;2023-12-20T09:18:23;7.53;;;1.83;;
72720;SDS011;60835;50.974;10.322;2023-12-20T09:20:49;4.47;;;1.60;;
72720;SDS011;60835;50.974;10.322;2023-12-20T09:23:16;4.85;;;1.80;;
72720;SDS011;60835;50.974;10.322;2023-12-20T09:25:44;5.07;;;1.92;;
72720;SDS011;60835;50.974;10.322;2023-12-20T09:28:11;6.78;;;2.03;;
72720;SDS011;60835;50.974;10.322;2023-12-20T09:30:38;4.95;;;2.13;;
72720;SDS011;60835;50.974;10.322;2023-12-20T09:33:06;11.18;;;3.33;;
72720;SDS011;60835;50.974;10.322;2023-12-20T09:35:34;6.90;;;2.10;;
72720;SDS011;60835;50.974;10.322;2023-12-20T09:38:01;10.73;;;1.70;;
72720;SDS011;60835;50.974;10.322;2023-12-20T09:40:27;7.07;;;1.83;;
72720;SDS011;60835;50.974;10.322;2023-12-20T09:45:35;4.93;;;1.52;;
72720;SDS011;60835;50.974;10.322;2023-12-20T09:48:02;4.65;;;1.67;;
72720;SDS011;60835;50.974;10.322;2023-12-20T09:50:30;7.18;;;1.58;;
72720;SDS011;60835;50.974;10.322;2023-12-20T09:52:58;7.68;;;2.55;;
72720;SDS011;60835;50.974;10.322;2023-12-20T09:55:29;5.78;;;2.17;;
72720;SDS011;60835;50.974;10.322;2023-12-20T09:57:59;7.22;;;2.33;;
72720;SDS011;60835;50.974;10.322;2023-12-20T10:00:26;5.68;;;2.58;;
72720;SDS011;60835;50.974;10.322;2023-12-20T10:02:57;3.88;;;1.65;;
72720;SDS011;60835;50.974;10.322;2023-12-20T10:05:29;5.22;;;1.45;;
72720;SDS011;60835;50.974;10.322;2023-12-20T10:08:00;5.90;;;1.95;;
72720;SDS011;60835;50.974;10.322;2023-12-20T10:10:28;6.18;;;1.92;;
72720;SDS011;60835;50.974;10.322;2023-12-20T10:13:06;6.13;;;1.58;;
72720;SDS011;60835;50.974;10.322;2023-12-20T10:15:37;6.68;;;1.92;;
72720;SDS011;60835;50.974;10.322;2023-12-20T10:18:05;4.00;;;1.67;;
72720;SDS011;60835;50.974;10.322;2023-12-20T10:20:32;9.60;;;1.63;;
72720;SDS011;60835;50.974;10.322;2023-12-20T10:22:59;10.05;;;1.85;;
72720;SDS011;60835;50.974;10.322;2023-12-20T10:25:26;4.53;;;1.70;;
72720;SDS011;60835;50.974;10.322;2023-12-20T10:28:13;3.28;;;1.10;;
72720;SDS011;60835;50.974;10.322;2023-12-20T10:30:41;3.05;;;1.45;;
72720;SDS011;60835;50.974;10.322;2023-12-20T10:33:09;7.60;;;1.58;;
72720;SDS011;60835;50.974;10.322;2023-12-20T10:35:37;4.15;;;1.98;;
72720;SDS011;60835;50.974;10.322;2023-12-20T10:38:08;5.22;;;1.63;;
72720;SDS011;60835;50.974;10.322;2023-12-20T10:40:37;5.10;;;1.70;;
72720;SDS011;60835;50.974;10.322;2023-12-20T10:43:04;7.55;;;1.45;;
72720;SDS011;60835;50.974;10.322;2023-12-20T10:45:32;6.30;;;1.50;;
72720;SDS011;60835;50.974;10.322;2023-12-20T10:47:59;3.85;;;1.25;;
72720;SDS011;60835;50.974;10.322;2023-12-20T10:50:28;5.43;;;1.60;;
72720;SDS011;60835;50.974;10.322;2023-12-20T10:52:57;7.70;;;2.40;;
72720;SDS011;60835;50.974;10.322;2023-12-20T10:55:25;5.43;;;1.40;;
72720;SDS011;60835;50.974;10.322;2023-12-20T10:58:09;7.05;;;1.52;;
72720;SDS011;60835;50.974;10.322;2023-12-20T11:00:40;3.83;;;1.20;;
72720;SDS011;60835;50.974;10.322;2023-12-20T11:03:09;2.58;;;1.10;;
72720;SDS011;60835;50.974;10.322;2023-12-20T11:08:33;3.63;;;1.23;;
72720;SDS011;60835;50.974;10.322;2023-12-20T11:11:07;5.38;;;1.40;;
72720;SDS011;60835;50.974;10.322;2023-12-20T11:13:58;8.13;;;1.73;;
72720;SDS011;60835;50.974;10.322;2023-12-20T11:16:29;9.13;;;2.03;;
72720;SDS011;60835;50.974;10.322;2023-12-20T11:19:13;3.45;;;1.23;;
72720;SDS011;60835;50.974;10.322;2023-12-20T11:21:41;6.82;;;1.52;;
72720;SDS011;60835;50.974;10.322;2023-12-20T11:24:07;5.97;;;1.50;;
72720;SDS011;60835;50.974;10.322;2023-12-20T11:26:35;7.70;;;1.50;;
72720;SDS011;60835;50.974;10.322;2023-12-20T11:32:27;9.07;;;2.83;;
72720;SDS011;60835;50.974;10.322;2023-12-20T11:34:58;4.35;;;1.27;;
72720;SDS011;60835;50.974;10.322;2023-12-20T11:37:31;15.48;;;4.95;;
72720;SDS011;60835;50.974;10.322;2023-12-20T11:40:08;5.72;;;1.60;;
72720;SDS011;60835;50.974;10.322;2023-12-20T11:42:39;8.98;;;1.98;;
72720;SDS011;60835;50.974;10.322;2023-12-20T11:45:10;4.40;;;1.55;;
72720;SDS011;60835;50.974;10.322;2023-12-20T11:47:38;3.33;;;1.20;;
72720;SDS011;60835;50.974;10.322;2023-12-20T11:50:05;6.88;;;2.22;;
72720;SDS011;60835;50.974;10.322;2023-12-20T11:52:32;7.07;;;1.75;;
72720;SDS011;60835;50.974;10.322;2023-12-20T11:54:58;3.03;;;1.55;;
72720;SDS011;60835;50.974;10.322;2023-12-20T11:57:25;7.40;;;2.22;;
72720;SDS011;60835;50.974;10.322;2023-12-20T11:59:54;3.75;;;1.30;;
72720;SDS011;60835;50.974;10.322;2023-12-20T12:02:20;3.55;;;1.77;;
72720;SDS011;60835;50.974;10.322;2023-12-20T12:04:50;6.25;;;1.70;;
72720;SDS011;60835;50.974;10.322;2023-12-20T12:07:17;6.80;;;1.42;;
72720;SDS011;60835;50.974;10.322;2023-12-20T12:09:44;6.47;;;1.48;;
72720;SDS011;60835;50.974;10.322;2023-12-20T12:12:11;2.55;;;1.30;;
72720;SDS011;60835;50.974;10.322;2023-12-20T12:14:40;5.25;;;1.63;;
72720;SDS011;60835;50.974;10.322;2023-12-20T12:17:10;6.90;;;1.60;;
72720;SDS011;60835;50.974;10.322;2023-12-20T12:19:40;4.72;;;1.50;;
72720;SDS011;60835;50.974;10.322;2023-12-20T12:22:08;2.88;;;1.15;;
72720;SDS011;60835;50.974;10.322;2023-12-20T12:24:43;3.67;;;1.20;;
72720;SDS011;60835;50.974;10.322;2023-12-20T12:27:11;6.93;;;1.50;;
72720;SDS011;60835;50.974;10.322;2023-12-20T12:29:38;3.65;;;1.50;;
72720;SDS011;60835;50.974;10.322;2023-12-20T12:32:08;3.53;;;1.10;;
72720;SDS011;60835;50.974;10.322;2023-12-20T12:34:36;5.32;;;1.10;;
72720;SDS011;60835;50.974;10.322;2023-12-20T12:37:04;5.18;;;1.48;;
72720;SDS011;60835;50.974;10.322;2023-12-20T12:39:31;3.15;;;1.30;;
72720;SDS011;60835;50.974;10.322;2023-12-20T12:41:57;5.63;;;1.45;;
72720;SDS011;60835;50.974;10.322;2023-12-20T12:44:24;2.28;;;1.13;;
72720;SDS011;60835;50.974;10.322;2023-12-20T12:46:51;3.72;;;1.17;;
72720;SDS011;60835;50.974;10.322;2023-12-20T12:49:20;2.55;;;1.20;;
72720;SDS011;60835;50.974;10.322;2023-12-20T12:51:48;1.80;;;1.02;;
72720;SDS011;60835;50.974;10.322;2023-12-20T12:54:15;4.38;;;0.88;;
72720;SDS011;60835;50.974;10.322;2023-12-20T12:56:43;3.85;;;1.30;;
72720;SDS011;60835;50.974;10.322;2023-12-20T12:59:09;5.28;;;1.30;;
72720;SDS011;60835;50.974;10.322;2023-12-20T13:01:37;4.18;;;1.75;;
72720;SDS011;60835;50.974;10.322;2023-12-20T13:04:05;3.50;;;1.23;;
72720;SDS011;60835;50.974;10.322;2023-12-20T13:06:37;7.15;;;1.75;;
72720;SDS011;60835;50.974;10.322;2023-12-20T13:09:05;2.42;;;1.13;;
72720;SDS011;60835;50.974;10.322;2023-12-20T13:11:32;3.20;;;0.93;;
72720;SDS011;60835;50.974;10.322;2023-12-20T13:14:01;3.55;;;1.98;;
72720;SDS011;60835;50.974;10.322;2023-12-20T13:16:27;2.88;;;1.15;;
72720;SDS011;60835;50.974;10.322;2023-12-20T13:18:54;2.40;;;1.00;;
72720;SDS011;60835;50.974;10.322;2023-12-20T13:21:21;3.38;;;1.15;;
72720;SDS011;60835;50.974;10.322;2023-12-20T13:23:48;7.85;;;1.70;;
72720;SDS011;60835;50.974;10.322;2023-12-20T13:26:15;1.85;;;1.00;;
72720;SDS011;60835;50.974;10.322;2023-12-20T13:28:42;6.53;;;1.70;;
72720;SDS011;60835;50.974;10.322;2023-12-20T13:31:08;3.63;;;1.63;;
72720;SDS011;60835;50.974;10.322;2023-12-20T13:33:36;2.58;;;0.90;;
72720;SDS011;60835;50.974;10.322;2023-12-20T13:36:03;2.88;;;1.17;;
72720;SDS011;60835;50.974;10.322;2023-12-20T13:38:33;5.00;;;1.10;;
72720;SDS011;60835;50.974;10.322;2023-12-20T13:41:00;1.85;;;0.98;;
72720;SDS011;60835;50.974;10.322;2023-12-20T13:43:26;2.03;;;1.13;;
72720;SDS011;60835;50.974;10.322;2023-12-20T13:45:53;5.63;;;1.42;;
72720;SDS011;60835;50.974;10.322;2023-12-20T13:48:20;5.38;;;1.10;;
72720;SDS011;60835;50.974;10.322;2023-12-20T13:50:47;4.60;;;1.42;;
72720;SDS011;60835;50.974;10.322;2023-12-20T13:53:13;3.15;;;1.10;;
72720;SDS011;60835;50.974;10.322;2023-12-20T13:55:40;4.60;;;1.58;;
72720;SDS011;60835;50.974;10.322;2023-12-20T13:58:07;4.93;;;1.73;;
72720;SDS011;60835;50.974;10.322;2023-12-20T14:00:33;5.72;;;1.23;;
72720;SDS011;60835;50.974;10.322;2023-12-20T14:03:00;3.67;;;1.48;;
72720;SDS011;60835;50.974;10.322;2023-12-20T14:05:28;2.00;;;1.00;;
72720;SDS011;60835;50.974;10.322;2023-12-20T14:07:55;3.13;;;1.58;;
72720;SDS011;60835;50.974;10.322;2023-12-20T14:10:24;4.20;;;1.50;;
72720;SDS011;60835;50.974;10.322;2023-12-20T14:12:54;2.80;;;1.15;;
72720;SDS011;60835;50.974;10.322;2023-12-20T14:15:21;3.58;;;1.20;;
72720;SDS011;60835;50.974;10.322;2023-12-20T14:17:52;4.95;;;1.63;;
72720;SDS011;60835;50.974;10.322;2023-12-20T14:20:25;7.10;;;1.80;;
72720;SDS011;60835;50.974;10.322;2023-12-20T14:22:52;3.42;;;1.65;;
72720;SDS011;60835;50.974;10.322;2023-12-20T14:25:19;6.40;;;1.17;;
72720;SDS011;60835;50.974;10.322;2023-12-20T14:27:46;4.30;;;1.35;;
72720;SDS011;60835;50.974;10.322;2023-12-20T14:30:14;6.30;;;1.60;;
72720;SDS011;60835;50.974;10.322;2023-12-20T14:32:41;4.18;;;1.27;;
72720;SDS011;60835;50.974;10.322;2023-12-20T14:35:08;4.85;;;1.30;;
72720;SDS011;60835;50.974;10.322;2023-12-20T14:37:35;8.30;;;1.70;;
72720;SDS011;60835;50.974;10.322;2023-12-20T14:40:06;4.88;;;1.30;;
72720;SDS011;60835;50.974;10.322;2023-12-20T14:42:36;9.40;;;2.45;;
72720;SDS011;60835;50.974;10.322;2023-12-20T14:45:03;8.70;;;1.80;;